Flight Track Log - Related Links

Times and Time Zones

All times are in EDT time to prevent confusion due to time zone crossing. See the EJM77 flight status page for this flight to view local times or setup timezone preferences in your user account.

Time Position Orientation Groundspeed Altitude Reporting Facility
EDT Latitude Longitude Course Direction KTS MPH feet Rate Location/Type
Sun 03:29:27 PM 39.3092 -106.9361 283° West 227 261 11,200  Level Denver Center
Sun 03:30:29 PM 39.3253 -107.0192 284° West 235 270 13,800 2,274 Climbing Denver Center
Sun 03:31:31 PM 39.3525 -107.0989 294° West 234 269 15,900 2,081 Climbing Denver Center
Sun 03:32:33 PM 39.3906 -107.1739 303° West 250 288 18,100 2,323 Climbing Denver Center
Sun 03:33:35 PM 39.4158 -107.2808 287° West 263 303 20,700 1,935 Climbing Denver Center
Sun 03:34:00 PM 39.4957 -107.6260 283° West  Level FlightAware Approximate
Sun 03:34:37 PM 39.4675 -107.3328 322° Northwest 278 320 22,100  Level Denver Center
Sun 03:35:39 PM 39.5294 -107.2503 46° Northeast 293 337 24,900 1,984 Climbing Denver Center
Sun 03:36:41 PM 39.5744 -107.1614 57° Northeast 305 351 26,200 1,415 Climbing Denver Center
Sun 03:37:42 PM 39.6203 -107.0683 57° Northeast 317 365 27,800 1,073 Climbing Denver Center
Sun 03:38:44 PM 39.6814 -106.9453 57° Northeast 361 415 28,400 871 Climbing Denver Center
Sun 03:39:46 PM 39.7381 -106.8294 58° Northeast 399 459 29,600 1,161 Climbing Denver Center
Sun 03:40:48 PM 39.7981 -106.7069 57° Northeast 397 457 30,800 1,694 Climbing Denver Center
Sun 03:41:50 PM 39.8592 -106.5817 58° Northeast 406 467 33,100 2,129 Climbing Denver Center
Sun 03:42:52 PM 39.9225 -106.4500 59° Northeast 364 419 35,200 1,588 Climbing Denver Center
Sun 03:43:00 PM 39.9263 -106.4380 59° Northeast  Level Estimated
Sun 03:44:06 PM 39.9772 -106.3361 58° Northeast 369 425 36,700  Level Denver Center
Sun 03:45:08 PM 40.0436 -106.1978 58° Northeast 374 430 37,800 681 Climbing Denver Center
Sun 03:47:11 PM 40.1467 -105.9817 58° Northeast 390 449 38,800 613 Climbing Denver Center
Sun 03:48:14 PM 40.2203 -105.8275 58° Northeast 414 476 39,700 871 Climbing Denver Center
Sun 03:49:15 PM 40.2783 -105.7003 59° Northeast 411 473 40,600 634 Climbing Denver Center
Sun 03:50:17 PM 40.3514 -105.5478 58° Northeast 412 474 41,000 194 Climbing Denver Center
Sun 03:51:19 PM 40.4128 -105.4158 59° Northeast 419 482 41,000  Level Denver Center
Sun 03:52:21 PM 40.4761 -105.2797 59° Northeast 432 497 41,000  Level Denver Center
Sun 03:53:23 PM 40.5400 -105.1428 58° Northeast 437 503 41,000  Level Denver Center
Sun 03:54:25 PM 40.6036 -105.0078 58° Northeast 433 498 41,000  Level Denver Center
Sun 03:55:26 PM 40.6664 -104.8708 59° Northeast 435 501 41,000  Level Denver Center
Sun 03:56:28 PM 40.7169 -104.7586 59° Northeast 442 509 41,000  Level Denver Center
Sun 03:57:30 PM 40.7906 -104.5956 59° Northeast 432 497 41,000  Level Denver Center
Sun 03:58:32 PM 40.8658 -104.4303 59° Northeast 437 503 41,000  Level Denver Center
Sun 03:59:34 PM 40.9278 -104.2925 59° Northeast 437 503 41,000  Level Denver Center
Sun 04:00:36 PM 40.9892 -104.1556 59° Northeast 433 498 41,000  Level Denver Center
Sun 04:01:38 PM 41.0511 -104.0161 59° Northeast 428 493 41,000  Level Denver Center
Sun 04:02:40 PM 41.1081 -103.8867 60° Northeast 425 489 41,000  Level Denver Center
Sun 04:03:41 PM 41.1750 -103.7353 60° Northeast 427 491 41,000  Level Denver Center
Sun 04:04:43 PM 41.2322 -103.6067 59° Northeast 425 489 41,000  Level Denver Center
Sun 04:05:45 PM 41.2989 -103.4531 60° Northeast 429 494 41,000  Level Denver Center
Sun 04:06:47 PM 41.3558 -103.3225 60° Northeast 429 494 41,000  Level Denver Center
Sun 04:07:49 PM 41.4222 -103.1708 60° Northeast 426 490 41,000  Level Denver Center
Sun 04:08:51 PM 41.4781 -103.0406 60° Northeast 424 488 41,000  Level Denver Center
Sun 04:09:53 PM 41.5442 -102.8889 60° Northeast 425 489 41,000  Level Denver Center
Sun 04:10:55 PM 41.5994 -102.7592 60° Northeast 422 486 41,000  Level Denver Center
Sun 04:11:56 PM 41.6631 -102.6094 60° Northeast 417 480 41,000  Level Denver Center
Sun 04:12:58 PM 41.7164 -102.4858 60° Northeast 419 482 41,000  Level Denver Center
Sun 04:14:00 PM 41.7831 -102.3289 60° Northeast 418 481 41,000  Level Denver Center
Sun 04:15:14 PM 41.8367 -102.2031 60° Northeast 421 484 41,000  Level Denver Center
Sun 04:16:16 PM 41.9089 -102.0286 61° Northeast 419 482 41,000  Level Denver Center
Sun 04:17:18 PM 41.9633 -101.8981 61° Northeast 416 479 41,000  Level Denver Center
Sun 04:18:20 PM 42.0275 -101.7439 61° Northeast 421 484 41,000  Level Denver Center
Sun 04:19:22 PM 42.0817 -101.6117 61° Northeast 420 483 41,000  Level Denver Center
Sun 04:20:24 PM 42.1442 -101.4592 61° Northeast 417 480 41,000  Level Denver Center
Sun 04:21:26 PM 42.1983 -101.3267 61° Northeast 419 482 41,000  Level Denver Center
Sun 04:22:28 PM 42.2594 -101.1756 61° Northeast 412 474 41,000  Level Denver Center
Sun 04:23:29 PM 42.3128 -101.0433 61° Northeast 414 476 41,000  Level Denver Center
Sun 04:24:31 PM 42.3658 -100.9128 61° Northeast 414 476 41,000  Level Denver Center
Sun 04:25:33 PM 42.4283 -100.7567 61° Northeast 419 482 41,000  Level Denver Center
Sun 04:26:35 PM 42.4719 -100.6464 62° Northeast 419 482 41,000  Level Denver Center
Sun 04:27:36 PM 42.5333 -100.4939 61° Northeast 415 478 41,000  Level Minneapolis Center
Sun 04:28:39 PM 42.5947 -100.3356 62° Northeast 420 483 41,000  Level Denver Center
Sun 04:29:41 PM 42.6550 -100.1819 62° Northeast 416 479 41,000  Level Denver Center
Sun 04:30:42 PM 42.7069 -100.0506 62° Northeast 411 473 41,000  Level Minneapolis Center
Sun 04:31:44 PM 42.7611 -99.9117 62° Northeast 412 474 41,000  Level Minneapolis Center
Sun 04:32:46 PM 42.8147 -99.7728 62° Northeast 414 476 41,000  Level Minneapolis Center
Sun 04:33:48 PM 42.8689 -99.6328 62° Northeast 416 479 41,000  Level Minneapolis Center
Sun 04:34:50 PM 42.9331 -99.4661 62° Northeast 415 478 41,000  Level Minneapolis Center
Sun 04:35:52 PM 42.9864 -99.3219 63° Northeast 419 482 41,000  Level Minneapolis Center
Sun 04:36:54 PM 43.0392 -99.1828 63° Northeast 416 479 41,000  Level Minneapolis Center
Sun 04:37:56 PM 43.0936 -99.0408 62° Northeast 419 482 41,000  Level Minneapolis Center
Sun 04:38:59 PM 43.1456 -98.9008 63° Northeast 420 483 41,000  Level Minneapolis Center
Sun 04:40:01 PM 43.1983 -98.7589 63° Northeast 420 483 41,000  Level Minneapolis Center
Sun 04:41:03 PM 43.2628 -98.5864 63° Northeast 424 488 41,000  Level Minneapolis Center
Sun 04:42:05 PM 43.3167 -98.4417 63° Northeast 426 490 41,000  Level Minneapolis Center
Sun 04:43:07 PM 43.3706 -98.2950 63° Northeast 431 496 41,000  Level Minneapolis Center
Sun 04:44:09 PM 43.4233 -98.1497 63° Northeast 428 493 41,000  Level Minneapolis Center
Sun 04:45:11 PM 43.4767 -98.0028 63° Northeast 430 495 41,000  Level Minneapolis Center
Sun 04:46:13 PM 43.5303 -97.8569 63° Northeast 428 493 41,000  Level Minneapolis Center
Sun 04:47:15 PM 43.5936 -97.6797 64° Northeast 429 494 41,000  Level Minneapolis Center
Sun 04:48:17 PM 43.6464 -97.5319 64° Northeast 430 495 41,000  Level Minneapolis Center
Sun 04:49:19 PM 43.6983 -97.3858 64° Northeast 427 491 41,000  Level Minneapolis Center
Sun 04:51:23 PM 43.8011 -97.0933 64° Northeast 426 490 41,000  Level Minneapolis Center
Sun 04:52:25 PM 43.8531 -96.9458 64° Northeast 427 491 41,000 -339 Level Minneapolis Center
Sun 04:53:27 PM 43.9150 -96.7678 64° Northeast 430 495 40,300 -677 Descending Minneapolis Center
Sun 04:54:29 PM 43.9669 -96.6167 64° Northeast 434 499 39,600 -677 Descending Minneapolis Center
Sun 04:55:31 PM 44.0183 -96.4686 64° Northeast 431 496 38,900 -581 Descending Minneapolis Center
Sun 04:56:33 PM 44.0683 -96.3206 65° Northeast 429 494 38,400 -629 Descending Minneapolis Center
Sun 04:57:35 PM 44.1167 -96.1756 65° Northeast 428 493 37,600 -919 Descending Minneapolis Center
Sun 04:58:37 PM 44.1681 -96.0006 68° East 424 488 36,500 -1,161 Descending Minneapolis Center
Sun 04:59:39 PM 44.2122 -95.8522 67° East 421 484 35,200 -1,890 Descending Minneapolis Center
Sun 05:01:00 PM 44.2684 -95.6587 68° East  Level FlightAware Approximate
Sun 05:03:10 PM 44.3686 -95.3144 69° East 418 481 27,900  Level Minneapolis Center
Sun 05:04:13 PM 44.4117 -95.1669 68° East 414 476 25,700 -2,160 Descending Minneapolis Center
Sun 05:05:15 PM 44.4533 -95.0197 68° East 411 473 23,400 -2,177 Descending Minneapolis Center
Sun 05:06:17 PM 44.4950 -94.8733 68° East 408 470 21,200 -2,081 Descending Minneapolis Center
Sun 05:07:19 PM 44.5364 -94.7281 68° East 404 465 19,100 -1,984 Descending Minneapolis Center
Sun 05:08:00 PM 44.5501 -94.6495 69° East  Level FlightAware Approximate
Sun 05:08:21 PM 44.5767 -94.5806 69° East 396 456 17,100  Level Minneapolis Center
Sun 05:09:23 PM 44.6156 -94.4428 68° East 378 435 15,100 -2,032 Descending Minneapolis Center
Sun 05:10:25 PM 44.6594 -94.2814 69° East 371 427 12,900 -1,935 Descending Minneapolis Center
Sun 05:11:27 PM 44.6944 -94.1547 69° East 345 397 11,100 -871 Descending Minneapolis Center
Sun 05:12:29 PM 44.7239 -94.0222 73° East 354 407 11,100 -48 Level Minneapolis Center
Sun 05:13:31 PM 44.7542 -93.8867 72° East 364 419 11,000 -48 Descending Minneapolis Center
Sun 05:14:33 PM 44.7847 -93.7519 72° East 363 418 11,000  Level Minneapolis Center
Sun 05:15:35 PM 44.8136 -93.6183 73° East 359 413 11,000 -774 Level Minneapolis Center
Sun 05:16:37 PM 44.8425 -93.4856 73° East 279 321 9,400 -1,500 Descending Minneapolis Center
Sun 05:17:39 PM 44.8208 -93.3831 107° East 275 316 7,900 -677 Descending Minneapolis Center
Sun 05:18:41 PM 44.7919 -93.2994 116° Southeast 241 277 8,000  Climbing Minneapolis Center
Sun 05:19:43 PM 44.7608 -93.2117 117° Southeast 239 275 7,900  Descending Minneapolis Center
Sun 05:20:45 PM 44.7311 -93.1297 117° Southeast 230 265 8,000 -194 Climbing Minneapolis Center
Sun 05:21:47 PM 44.7008 -93.0617 122° Southeast 208 239 7,500 -1,210 Descending Minneapolis Center
Sun 05:22:49 PM 44.7153 -93.0058 70° East 188 216 5,500 -1,452 Descending Minneapolis Center
Sun 05:23:51 PM 44.7628 -93.0244 344° North 197 227 4,500 -1,113 Descending Minneapolis Center
Sun 05:24:53 PM 44.8178 -93.0747 327° Northwest 200 230 3,200 -1,056 Descending Minneapolis Center
Sun 05:25:56 PM 44.8431 -93.1311 302° West 170 196 2,300 -857 Descending Minneapolis Center
Sun 05:28:00 PM 44.8667 -93.2167 331° Northwest  Level FlightAware Approximate
Sun 05:35:00 PM 44.8820 -93.2218 331° Northwest  Level Estimated
Sun 05:36:00 PM 44.8820 -93.2218 331° Northwest  Level Estimated

Login

Don't have an account? Register now (free) for customized features, flight alerts, and more!